<?xml version="1.0" encoding="UTF-8" standalone="no" ?>
<gpx xmlns="http://www.topografix.com/GPX/1/1" xmlns:xsi="http://www.w3.org/2001/XMLSchema-instance" xsi:schemaLocation="http://www.topografix.com/GPX/1/1 http://www.topografix.com/GPX/1/1/gpx.xsd" version="1.1" creator="VisuGPX - https://www.visugpx.com">
  <metadata>
    <name>sejour gov alsace</name>
  </metadata>
  <wpt lat="48.06424" lon="7.02221">
    <ele>1132</ele>
    <name><![CDATA[Col de la Schlucht]]></name>
    <desc><![CDATA[Parking]]></desc>
    <cmt><![CDATA[Parking]]></cmt>
  </wpt>
  <wpt lat="48.04158" lon="7.29947">
    <ele>223</ele>
    <name><![CDATA[Eguisheim]]></name>
  </wpt>
  <wpt lat="48.1793" lon="7.31018">
    <ele>275</ele>
    <name><![CDATA[Hunawihr]]></name>
  </wpt>
  <wpt lat="48.13923" lon="7.25933">
    <ele>251</ele>
    <name><![CDATA[Kaysersberg]]></name>
  </wpt>
  <wpt lat="48.14587" lon="7.25086">
    <ele>290</ele>
    <name><![CDATA[Kaysersberg-CCAS]]></name>
    <desc><![CDATA[3 Rue Rene le Guen]]></desc>
    <cmt><![CDATA[3 Rue Rene le Guen]]></cmt>
  </wpt>
  <wpt lat="48.14668" lon="7.25549">
    <ele>261</ele>
    <name><![CDATA[Kaysersberg-Salle de Sport]]></name>
  </wpt>
  <wpt lat="48.11261" lon="7.10019">
    <ele>958</ele>
    <name><![CDATA[Lac Noir]]></name>
  </wpt>
  <wpt lat="48.17" lon="7.12576">
    <ele>667</ele>
    <name><![CDATA[Le Bonhomme]]></name>
  </wpt>
  <wpt lat="48.05292" lon="6.9482">
    <ele>918</ele>
    <name><![CDATA[Lispach]]></name>
  </wpt>
  <wpt lat="48.16758" lon="7.29424">
    <ele>321</ele>
    <name><![CDATA[Riquewihr]]></name>
  </wpt>
  <wpt lat="48.23274" lon="7.36606">
    <ele>254</ele>
    <name><![CDATA[St-Hippolyte]]></name>
  </wpt>
  <wpt lat="48.22694" lon="7.30439">
    <ele>466</ele>
    <name><![CDATA[Thannenkirch]]></name>
  </wpt>
  <trk>
    <name><![CDATA[Col de la Schlucht-Le Hohneck (14,7 km & 650 m)]]></name>
    <trkseg>
      <trkpt lat="48.06379" lon="7.02262">
        <ele>1174.87</ele>
        <time>2015-09-26T07:36:48Z</time>
      </trkpt>
      <trkpt lat="48.0638" lon="7.02288">
        <ele>1150.35</ele>
        <time>2015-09-26T07:37:08Z</time>
      </trkpt>
      <trkpt lat="48.0637" lon="7.02314">
        <ele>1150.35</ele>
        <time>2015-09-26T07:37:23Z</time>
      </trkpt>
      <trkpt lat="48.06362" lon="7.02348">
        <ele>1150.35</ele>
        <time>2015-09-26T07:37:41Z</time>
      </trkpt>
      <trkpt lat="48.06355" lon="7.02423">
        <ele>1148.43</ele>
        <time>2015-09-26T07:38:16Z</time>
      </trkpt>
      <trkpt lat="48.06364" lon="7.02463">
        <ele>1144.11</ele>
        <time>2015-09-26T07:38:39Z</time>
      </trkpt>
      <trkpt lat="48.06371" lon="7.02495">
        <ele>1145.07</ele>
        <time>2015-09-26T07:38:56Z</time>
      </trkpt>
      <trkpt lat="48.06359" lon="7.02467">
        <ele>1141.22</ele>
        <time>2015-09-26T07:39:15Z</time>
      </trkpt>
      <trkpt lat="48.06343" lon="7.02452">
        <ele>1137.38</ele>
        <time>2015-09-26T07:39:38Z</time>
      </trkpt>
      <trkpt lat="48.06319" lon="7.02452">
        <ele>1133.05</ele>
        <time>2015-09-26T07:40:12Z</time>
      </trkpt>
      <trkpt lat="48.06297" lon="7.02451">
        <ele>1138.34</ele>
        <time>2015-09-26T07:40:43Z</time>
      </trkpt>
      <trkpt lat="48.0627" lon="7.02474">
        <ele>1134.01</ele>
        <time>2015-09-26T07:41:16Z</time>
      </trkpt>
      <trkpt lat="48.06254" lon="7.02485">
        <ele>1131.61</ele>
        <time>2015-09-26T07:41:36Z</time>
      </trkpt>
      <trkpt lat="48.06238" lon="7.02501">
        <ele>1129.69</ele>
        <time>2015-09-26T07:41:53Z</time>
      </trkpt>
      <trkpt lat="48.06214" lon="7.02527">
        <ele>1125.84</ele>
        <time>2015-09-26T07:42:20Z</time>
      </trkpt>
      <trkpt lat="48.06197" lon="7.02554">
        <ele>1125.84</ele>
        <time>2015-09-26T07:42:45Z</time>
      </trkpt>
      <trkpt lat="48.06181" lon="7.02581">
        <ele>1123.44</ele>
        <time>2015-09-26T07:43:14Z</time>
      </trkpt>
      <trkpt lat="48.0615" lon="7.02595">
        <ele>1124.4</ele>
        <time>2015-09-26T07:43:44Z</time>
      </trkpt>
      <trkpt lat="48.0613" lon="7.02602">
        <ele>1124.88</ele>
        <time>2015-09-26T07:44:06Z</time>
      </trkpt>
      <trkpt lat="48.06108" lon="7.02585">
        <ele>1124.4</ele>
        <time>2015-09-26T07:44:57Z</time>
      </trkpt>
      <trkpt lat="48.06091" lon="7.02595">
        <ele>1123.92</ele>
        <time>2015-09-26T07:45:25Z</time>
      </trkpt>
      <trkpt lat="48.06083" lon="7.02619">
        <ele>1120.07</ele>
        <time>2015-09-26T07:45:51Z</time>
      </trkpt>
      <trkpt lat="48.06059" lon="7.02612">
        <ele>1117.19</ele>
        <time>2015-09-26T07:46:38Z</time>
      </trkpt>
      <trkpt lat="48.0604" lon="7.02607">
        <ele>1114.79</ele>
        <time>2015-09-26T07:47:29Z</time>
      </trkpt>
      <trkpt lat="48.06016" lon="7.02542">
        <ele>1105.17</ele>
        <time>2015-09-26T07:50:07Z</time>
      </trkpt>
      <trkpt lat="48.05988" lon="7.02529">
        <ele>1098.44</ele>
        <time>2015-09-26T07:51:05Z</time>
      </trkpt>
      <trkpt lat="48.05963" lon="7.02512">
        <ele>1094.6</ele>
        <time>2015-09-26T07:51:55Z</time>
      </trkpt>
      <trkpt lat="48.05944" lon="7.02512">
        <ele>1097.96</ele>
        <time>2015-09-26T07:52:33Z</time>
      </trkpt>
      <trkpt lat="48.05926" lon="7.02499">
        <ele>1103.25</ele>
        <time>2015-09-26T07:53:05Z</time>
      </trkpt>
      <trkpt lat="48.05948" lon="7.02489">
        <ele>1107.58</ele>
        <time>2015-09-26T07:53:40Z</time>
      </trkpt>
      <trkpt lat="48.0593" lon="7.02483">
        <ele>1112.86</ele>
        <time>2015-09-26T07:54:24Z</time>
      </trkpt>
      <trkpt lat="48.05915" lon="7.02503">
        <ele>1116.23</ele>
        <time>2015-09-26T07:55:01Z</time>
      </trkpt>
      <trkpt lat="48.05898" lon="7.02487">
        <ele>1120.07</ele>
        <time>2015-09-26T07:55:31Z</time>
      </trkpt>
      <trkpt lat="48.05869" lon="7.0247">
        <ele>1120.07</ele>
        <time>2015-09-26T07:56:12Z</time>
      </trkpt>
      <trkpt lat="48.05858" lon="7.0251">
        <ele>1118.63</ele>
        <time>2015-09-26T07:57:10Z</time>
      </trkpt>
      <trkpt lat="48.0584" lon="7.02514">
        <ele>1116.71</ele>
        <time>2015-09-26T07:58:08Z</time>
      </trkpt>
      <trkpt lat="48.05823" lon="7.02534">
        <ele>1114.31</ele>
        <time>2015-09-26T07:58:54Z</time>
      </trkpt>
      <trkpt lat="48.0581" lon="7.02554">
        <ele>1112.86</ele>
        <time>2015-09-26T07:59:27Z</time>
      </trkpt>
      <trkpt lat="48.05782" lon="7.02583">
        <ele>1112.38</ele>
        <time>2015-09-26T08:00:09Z</time>
      </trkpt>
      <trkpt lat="48.05763" lon="7.02597">
        <ele>1111.42</ele>
        <time>2015-09-26T08:00:39Z</time>
      </trkpt>
      <trkpt lat="48.05748" lon="7.02623">
        <ele>1112.38</ele>
        <time>2015-09-26T08:01:10Z</time>
      </trkpt>
      <trkpt lat="48.05738" lon="7.02649">
        <ele>1112.86</ele>
        <time>2015-09-26T08:01:38Z</time>
      </trkpt>
      <trkpt lat="48.05716" lon="7.02687">
        <ele>1111.42</ele>
        <time>2015-09-26T08:02:23Z</time>
      </trkpt>
      <trkpt lat="48.057" lon="7.02729">
        <ele>1109.5</ele>
        <time>2015-09-26T08:03:26Z</time>
      </trkpt>
      <trkpt lat="48.05664" lon="7.02774">
        <ele>1105.17</ele>
        <time>2015-09-26T08:04:56Z</time>
      </trkpt>
      <trkpt lat="48.05634" lon="7.02788">
        <ele>1108.54</ele>
        <time>2015-09-26T08:06:04Z</time>
      </trkpt>
      <trkpt lat="48.05599" lon="7.02796">
        <ele>1110.94</ele>
        <time>2015-09-26T08:06:47Z</time>
      </trkpt>
      <trkpt lat="48.05575" lon="7.02804">
        <ele>1113.34</ele>
        <time>2015-09-26T08:07:18Z</time>
      </trkpt>
      <trkpt lat="48.05549" lon="7.02821">
        <ele>1110.46</ele>
        <time>2015-09-26T08:08:40Z</time>
      </trkpt>
      <trkpt lat="48.05541" lon="7.02868">
        <ele>1110.46</ele>
        <time>2015-09-26T08:09:51Z</time>
      </trkpt>
      <trkpt lat="48.05546" lon="7.02895">
        <ele>1111.42</ele>
        <time>2015-09-26T08:10:27Z</time>
      </trkpt>
      <trkpt lat="48.05522" lon="7.02871">
        <ele>1101.81</ele>
        <time>2015-09-26T08:13:25Z</time>
      </trkpt>
      <trkpt lat="48.05499" lon="7.02875">
        <ele>1081.14</ele>
        <time>2015-09-26T08:17:12Z</time>
      </trkpt>
      <trkpt lat="48.0548" lon="7.02861">
        <ele>1079.7</ele>
        <time>2015-09-26T08:17:44Z</time>
      </trkpt>
      <trkpt lat="48.05452" lon="7.02855">
        <ele>1078.26</ele>
        <time>2015-09-26T08:18:45Z</time>
      </trkpt>
      <trkpt lat="48.05433" lon="7.02845">
        <ele>1075.85</ele>
        <time>2015-09-26T08:19:40Z</time>
      </trkpt>
      <trkpt lat="48.05424" lon="7.02886">
        <ele>1071.53</ele>
        <time>2015-09-26T08:20:47Z</time>
      </trkpt>
      <trkpt lat="48.05415" lon="7.02915">
        <ele>1070.57</ele>
        <time>2015-09-26T08:21:27Z</time>
      </trkpt>
      <trkpt lat="48.05434" lon="7.0292">
        <ele>1065.28</ele>
        <time>2015-09-26T08:22:55Z</time>
      </trkpt>
      <trkpt lat="48.05451" lon="7.02907">
        <ele>1062.39</ele>
        <time>2015-09-26T08:24:15Z</time>
      </trkpt>
      <trkpt lat="48.0547" lon="7.02911">
        <ele>1053.74</ele>
        <time>2015-09-26T08:27:02Z</time>
      </trkpt>
      <trkpt lat="48.05485" lon="7.02929">
        <ele>1048.94</ele>
        <time>2015-09-26T08:27:47Z</time>
      </trkpt>
      <trkpt lat="48.05493" lon="7.02952">
        <ele>1040.28</ele>
        <time>2015-09-26T08:30:04Z</time>
      </trkpt>
      <trkpt lat="48.05476" lon="7.02946">
        <ele>1035.96</ele>
        <time>2015-09-26T08:30:23Z</time>
      </trkpt>
      <trkpt lat="48.05451" lon="7.02965">
        <ele>1030.67</ele>
        <time>2015-09-26T08:31:32Z</time>
      </trkpt>
      <trkpt lat="48.0544" lon="7.03018">
        <ele>1030.19</ele>
        <time>2015-09-26T08:33:24Z</time>
      </trkpt>
      <trkpt lat="48.05427" lon="7.03046">
        <ele>1023.94</ele>
        <time>2015-09-26T08:34:30Z</time>
      </trkpt>
      <trkpt lat="48.05409" lon="7.03066">
        <ele>1020.58</ele>
        <time>2015-09-26T08:35:19Z</time>
      </trkpt>
      <trkpt lat="48.05376" lon="7.03072">
        <ele>1024.42</ele>
        <time>2015-09-26T08:36:42Z</time>
      </trkpt>
      <trkpt lat="48.0537" lon="7.03117">
        <ele>1029.23</ele>
        <time>2015-09-26T08:38:23Z</time>
      </trkpt>
      <trkpt lat="48.05338" lon="7.03128">
        <ele>1038.36</ele>
        <time>2015-09-26T08:41:41Z</time>
      </trkpt>
      <trkpt lat="48.05321" lon="7.0312">
        <ele>1030.67</ele>
        <time>2015-09-26T08:42:46Z</time>
      </trkpt>
      <trkpt lat="48.05297" lon="7.03103">
        <ele>1029.71</ele>
        <time>2015-09-26T08:43:17Z</time>
      </trkpt>
      <trkpt lat="48.05264" lon="7.03069">
        <ele>1023.94</ele>
        <time>2015-09-26T08:44:42Z</time>
      </trkpt>
      <trkpt lat="48.05233" lon="7.03078">
        <ele>1013.37</ele>
        <time>2015-09-26T08:46:09Z</time>
      </trkpt>
      <trkpt lat="48.05211" lon="7.03081">
        <ele>1008.08</ele>
        <time>2015-09-26T08:48:17Z</time>
      </trkpt>
      <trkpt lat="48.05196" lon="7.03094">
        <ele>1006.16</ele>
        <time>2015-09-26T08:48:51Z</time>
      </trkpt>
      <trkpt lat="48.05167" lon="7.03103">
        <ele>1008.08</ele>
        <time>2015-09-26T08:49:51Z</time>
      </trkpt>
      <trkpt lat="48.0515" lon="7.03103">
        <ele>1011.44</ele>
        <time>2015-09-26T08:50:47Z</time>
      </trkpt>
      <trkpt lat="48.05133" lon="7.03091">
        <ele>1013.85</ele>
        <time>2015-09-26T08:51:25Z</time>
      </trkpt>
      <trkpt lat="48.05097" lon="7.03071">
        <ele>1008.56</ele>
        <time>2015-09-26T08:52:32Z</time>
      </trkpt>
      <trkpt lat="48.05065" lon="7.03063">
        <ele>999.91</ele>
        <time>2015-09-26T08:54:21Z</time>
      </trkpt>
      <trkpt lat="48.0505" lon="7.03044">
        <ele>1000.39</ele>
        <time>2015-09-26T08:54:58Z</time>
      </trkpt>
      <trkpt lat="48.05027" lon="7.03051">
        <ele>1003.27</ele>
        <time>2015-09-26T08:55:53Z</time>
      </trkpt>
      <trkpt lat="48.05005" lon="7.03055">
        <ele>1006.16</ele>
        <time>2015-09-26T08:56:26Z</time>
      </trkpt>
      <trkpt lat="48.04976" lon="7.0309">
        <ele>1013.37</ele>
        <time>2015-09-26T08:57:16Z</time>
      </trkpt>
      <trkpt lat="48.04952" lon="7.03095">
        <ele>1023.94</ele>
        <time>2015-09-26T08:58:16Z</time>
      </trkpt>
      <trkpt lat="48.04957" lon="7.03124">
        <ele>1027.79</ele>
        <time>2015-09-26T09:01:28Z</time>
      </trkpt>
      <trkpt lat="48.04941" lon="7.03092">
        <ele>1022.5</ele>
        <time>2015-09-26T09:10:40Z</time>
      </trkpt>
      <trkpt lat="48.04918" lon="7.03069">
        <ele>1022.5</ele>
        <time>2015-09-26T09:11:16Z</time>
      </trkpt>
      <trkpt lat="48.04901" lon="7.03029">
        <ele>1024.42</ele>
        <time>2015-09-26T09:14:02Z</time>
      </trkpt>
      <trkpt lat="48.0491" lon="7.02987">
        <ele>1035</ele>
        <time>2015-09-26T09:15:16Z</time>
      </trkpt>
      <trkpt lat="48.04899" lon="7.02951">
        <ele>1043.17</ele>
        <time>2015-09-26T09:16:10Z</time>
      </trkpt>
      <trkpt lat="48.04886" lon="7.02912">
        <ele>1048.94</ele>
        <time>2015-09-26T09:16:45Z</time>
      </trkpt>
      <trkpt lat="48.04913" lon="7.02941">
        <ele>1054.22</ele>
        <time>2015-09-26T09:17:23Z</time>
      </trkpt>
      <trkpt lat="48.04937" lon="7.02965">
        <ele>1058.55</ele>
        <time>2015-09-26T09:17:56Z</time>
      </trkpt>
      <trkpt lat="48.04925" lon="7.02912">
        <ele>1068.64</ele>
        <time>2015-09-26T09:19:46Z</time>
      </trkpt>
      <trkpt lat="48.04915" lon="7.02888">
        <ele>1071.53</ele>
        <time>2015-09-26T09:20:03Z</time>
      </trkpt>
      <trkpt lat="48.04905" lon="7.02855">
        <ele>1073.93</ele>
        <time>2015-09-26T09:20:20Z</time>
      </trkpt>
      <trkpt lat="48.04929" lon="7.02866">
        <ele>1080.18</ele>
        <time>2015-09-26T09:21:16Z</time>
      </trkpt>
      <trkpt lat="48.04934" lon="7.02833">
        <ele>1089.79</ele>
        <time>2015-09-26T09:22:20Z</time>
      </trkpt>
      <trkpt lat="48.04937" lon="7.02791">
        <ele>1097.96</ele>
        <time>2015-09-26T09:23:43Z</time>
      </trkpt>
      <trkpt lat="48.04922" lon="7.02743">
        <ele>1101.81</ele>
        <time>2015-09-26T09:24:19Z</time>
      </trkpt>
      <trkpt lat="48.0495" lon="7.02775">
        <ele>1109.5</ele>
        <time>2015-09-26T09:25:16Z</time>
      </trkpt>
      <trkpt lat="48.04967" lon="7.02794">
        <ele>1113.34</ele>
        <time>2015-09-26T09:25:45Z</time>
      </trkpt>
      <trkpt lat="48.04985" lon="7.02793">
        <ele>1117.67</ele>
        <time>2015-09-26T09:26:17Z</time>
      </trkpt>
      <trkpt lat="48.05007" lon="7.02775">
        <ele>1128.73</ele>
        <time>2015-09-26T09:27:22Z</time>
      </trkpt>
      <trkpt lat="48.04998" lon="7.02751">
        <ele>1134.49</ele>
        <time>2015-09-26T09:28:01Z</time>
      </trkpt>
      <trkpt lat="48.04981" lon="7.02732">
        <ele>1136.42</ele>
        <time>2015-09-26T09:28:25Z</time>
      </trkpt>
      <trkpt lat="48.04965" lon="7.02689">
        <ele>1138.34</ele>
        <time>2015-09-26T09:28:59Z</time>
      </trkpt>
      <trkpt lat="48.04955" lon="7.02664">
        <ele>1140.26</ele>
        <time>2015-09-26T09:29:17Z</time>
      </trkpt>
      <trkpt lat="48.04947" lon="7.02641">
        <ele>1142.66</ele>
        <time>2015-09-26T09:29:36Z</time>
      </trkpt>
      <trkpt lat="48.04974" lon="7.02667">
        <ele>1146.03</ele>
        <time>2015-09-26T09:30:14Z</time>
      </trkpt>
      <trkpt lat="48.04988" lon="7.02684">
        <ele>1147.47</ele>
        <time>2015-09-26T09:30:31Z</time>
      </trkpt>
      <trkpt lat="48.04983" lon="7.02635">
        <ele>1155.64</ele>
        <time>2015-09-26T09:32:02Z</time>
      </trkpt>
      <trkpt lat="48.05004" lon="7.02642">
        <ele>1160.45</ele>
        <time>2015-09-26T09:32:37Z</time>
      </trkpt>
      <trkpt lat="48.04995" lon="7.02614">
        <ele>1163.33</ele>
        <time>2015-09-26T09:33:13Z</time>
      </trkpt>
      <trkpt lat="48.05002" lon="7.02563">
        <ele>1187.85</ele>
        <time>2015-09-26T09:36:12Z</time>
      </trkpt>
      <trkpt lat="48.04991" lon="7.0253">
        <ele>1190.25</ele>
        <time>2015-09-26T09:36:47Z</time>
      </trkpt>
      <trkpt lat="48.04996" lon="7.0249">
        <ele>1199.38</ele>
        <time>2015-09-26T09:41:14Z</time>
      </trkpt>
      <trkpt lat="48.05022" lon="7.02462">
        <ele>1202.75</ele>
        <time>2015-09-26T09:41:55Z</time>
      </trkpt>
      <trkpt lat="48.05032" lon="7.02432">
        <ele>1207.07</ele>
        <time>2015-09-26T09:42:28Z</time>
      </trkpt>
      <trkpt lat="48.05023" lon="7.02386">
        <ele>1211.88</ele>
        <time>2015-09-26T09:43:14Z</time>
      </trkpt>
      <trkpt lat="48.04995" lon="7.0235">
        <ele>1219.09</ele>
        <time>2015-09-26T09:47:45Z</time>
      </trkpt>
      <trkpt lat="48.04977" lon="7.02351">
        <ele>1217.65</ele>
        <time>2015-09-26T09:52:08Z</time>
      </trkpt>
      <trkpt lat="48.04951" lon="7.0234">
        <ele>1207.55</ele>
        <time>2015-09-26T09:54:04Z</time>
      </trkpt>
      <trkpt lat="48.04959" lon="7.02292">
        <ele>1204.19</ele>
        <time>2015-09-26T09:56:02Z</time>
      </trkpt>
      <trkpt lat="48.04988" lon="7.02264">
        <ele>1205.15</ele>
        <time>2015-09-26T09:56:30Z</time>
      </trkpt>
      <trkpt lat="48.05022" lon="7.02231">
        <ele>1204.19</ele>
        <time>2015-09-26T09:57:03Z</time>
      </trkpt>
      <trkpt lat="48.0503" lon="7.02203">
        <ele>1204.67</ele>
        <time>2015-09-26T09:57:19Z</time>
      </trkpt>
      <trkpt lat="48.05048" lon="7.02175">
        <ele>1205.63</ele>
        <time>2015-09-26T09:57:41Z</time>
      </trkpt>
      <trkpt lat="48.05069" lon="7.02127">
        <ele>1209</ele>
        <time>2015-09-26T09:58:21Z</time>
      </trkpt>
      <trkpt lat="48.05092" lon="7.02098">
        <ele>1209.96</ele>
        <time>2015-09-26T09:58:45Z</time>
      </trkpt>
      <trkpt lat="48.05104" lon="7.02053">
        <ele>1210.44</ele>
        <time>2015-09-26T09:59:15Z</time>
      </trkpt>
      <trkpt lat="48.05112" lon="7.02019">
        <ele>1211.4</ele>
        <time>2015-09-26T09:59:35Z</time>
      </trkpt>
      <trkpt lat="48.05105" lon="7.01956">
        <ele>1213.32</ele>
        <time>2015-09-26T10:00:32Z</time>
      </trkpt>
      <trkpt lat="48.05116" lon="7.01921">
        <ele>1214.76</ele>
        <time>2015-09-26T10:01:02Z</time>
      </trkpt>
      <trkpt lat="48.05123" lon="7.01869">
        <ele>1220.53</ele>
        <time>2015-09-26T10:01:51Z</time>
      </trkpt>
      <trkpt lat="48.0513" lon="7.01826">
        <ele>1223.42</ele>
        <time>2015-09-26T10:03:38Z</time>
      </trkpt>
      <trkpt lat="48.05112" lon="7.01783">
        <ele>1228.22</ele>
        <time>2015-09-26T10:04:18Z</time>
      </trkpt>
      <trkpt lat="48.05093" lon="7.01755">
        <ele>1231.11</ele>
        <time>2015-09-26T10:04:46Z</time>
      </trkpt>
      <trkpt lat="48.05073" lon="7.01714">
        <ele>1233.51</ele>
        <time>2015-09-26T10:05:18Z</time>
      </trkpt>
      <trkpt lat="48.05061" lon="7.01695">
        <ele>1235.91</ele>
        <time>2015-09-26T10:05:33Z</time>
      </trkpt>
      <trkpt lat="48.05042" lon="7.01664">
        <ele>1238.32</ele>
        <time>2015-09-26T10:06:02Z</time>
      </trkpt>
      <trkpt lat="48.05014" lon="7.0164">
        <ele>1240.24</ele>
        <time>2015-09-26T10:06:31Z</time>
      </trkpt>
      <trkpt lat="48.04986" lon="7.01624">
        <ele>1243.12</ele>
        <time>2015-09-26T10:07:18Z</time>
      </trkpt>
      <trkpt lat="48.0496" lon="7.01609">
        <ele>1244.56</ele>
        <time>2015-09-26T10:07:46Z</time>
      </trkpt>
      <trkpt lat="48.04936" lon="7.01581">
        <ele>1247.45</ele>
        <time>2015-09-26T10:08:13Z</time>
      </trkpt>
      <trkpt lat="48.04908" lon="7.01544">
        <ele>1250.81</ele>
        <time>2015-09-26T10:08:56Z</time>
      </trkpt>
      <trkpt lat="48.04894" lon="7.01525">
        <ele>1254.18</ele>
        <time>2015-09-26T10:09:26Z</time>
      </trkpt>
      <trkpt lat="48.04878" lon="7.01513">
        <ele>1257.06</ele>
        <time>2015-09-26T10:09:48Z</time>
      </trkpt>
      <trkpt lat="48.04861" lon="7.01502">
        <ele>1263.79</ele>
        <time>2015-09-26T10:10:13Z</time>
      </trkpt>
      <trkpt lat="48.04836" lon="7.01487">
        <ele>1261.87</ele>
        <time>2015-09-26T10:10:46Z</time>
      </trkpt>
      <trkpt lat="48.04813" lon="7.01486">
        <ele>1266.67</ele>
        <time>2015-09-26T10:11:19Z</time>
      </trkpt>
      <trkpt lat="48.04792" lon="7.01489">
        <ele>1270.04</ele>
        <time>2015-09-26T10:11:40Z</time>
      </trkpt>
      <trkpt lat="48.04754" lon="7.01496">
        <ele>1272.44</ele>
        <time>2015-09-26T10:12:22Z</time>
      </trkpt>
      <trkpt lat="48.04738" lon="7.01513">
        <ele>1273.88</ele>
        <time>2015-09-26T10:12:42Z</time>
      </trkpt>
      <trkpt lat="48.04725" lon="7.01531">
        <ele>1272.92</ele>
        <time>2015-09-26T10:13:23Z</time>
      </trkpt>
      <trkpt lat="48.04713" lon="7.01552">
        <ele>1272.44</ele>
        <time>2015-09-26T10:13:38Z</time>
      </trkpt>
      <trkpt lat="48.04707" lon="7.01515">
        <ele>1273.88</ele>
        <time>2015-09-26T10:18:01Z</time>
      </trkpt>
      <trkpt lat="48.04705" lon="7.01464">
        <ele>1274.85</ele>
        <time>2015-09-26T10:18:37Z</time>
      </trkpt>
      <trkpt lat="48.0469" lon="7.01421">
        <ele>1275.81</ele>
        <time>2015-09-26T10:19:26Z</time>
      </trkpt>
      <trkpt lat="48.04663" lon="7.01384">
        <ele>1276.29</ele>
        <time>2015-09-26T10:19:56Z</time>
      </trkpt>
      <trkpt lat="48.04645" lon="7.01374">
        <ele>1277.25</ele>
        <time>2015-09-26T10:20:13Z</time>
      </trkpt>
      <trkpt lat="48.04615" lon="7.01358">
        <ele>1278.21</ele>
        <time>2015-09-26T10:20:43Z</time>
      </trkpt>
      <trkpt lat="48.046" lon="7.01343">
        <ele>1279.17</ele>
        <time>2015-09-26T10:21:00Z</time>
      </trkpt>
      <trkpt lat="48.04582" lon="7.01325">
        <ele>1281.09</ele>
        <time>2015-09-26T10:21:17Z</time>
      </trkpt>
      <trkpt lat="48.04557" lon="7.0131">
        <ele>1283.5</ele>
        <time>2015-09-26T10:21:51Z</time>
      </trkpt>
      <trkpt lat="48.04533" lon="7.01291">
        <ele>1288.3</ele>
        <time>2015-09-26T10:22:15Z</time>
      </trkpt>
      <trkpt lat="48.04514" lon="7.01276">
        <ele>1290.71</ele>
        <time>2015-09-26T10:22:34Z</time>
      </trkpt>
      <trkpt lat="48.04497" lon="7.01262">
        <ele>1294.07</ele>
        <time>2015-09-26T10:22:54Z</time>
      </trkpt>
      <trkpt lat="48.04467" lon="7.01246">
        <ele>1296.96</ele>
        <time>2015-09-26T10:23:24Z</time>
      </trkpt>
      <trkpt lat="48.04452" lon="7.01233">
        <ele>1298.4</ele>
        <time>2015-09-26T10:23:40Z</time>
      </trkpt>
      <trkpt lat="48.04427" lon="7.01209">
        <ele>1301.28</ele>
        <time>2015-09-26T10:24:34Z</time>
      </trkpt>
      <trkpt lat="48.04409" lon="7.01214">
        <ele>1299.84</ele>
        <time>2015-09-26T10:24:54Z</time>
      </trkpt>
      <trkpt lat="48.04388" lon="7.0121">
        <ele>1301.28</ele>
        <time>2015-09-26T10:26:11Z</time>
      </trkpt>
      <trkpt lat="48.04363" lon="7.01196">
        <ele>1298.4</ele>
        <time>2015-09-26T10:26:57Z</time>
      </trkpt>
      <trkpt lat="48.04331" lon="7.01195">
        <ele>1298.88</ele>
        <time>2015-09-26T10:27:23Z</time>
      </trkpt>
      <trkpt lat="48.0431" lon="7.01183">
        <ele>1303.69</ele>
        <time>2015-09-26T10:27:42Z</time>
      </trkpt>
      <trkpt lat="48.04261" lon="7.01149">
        <ele>1305.61</ele>
        <time>2015-09-26T10:28:35Z</time>
      </trkpt>
      <trkpt lat="48.04239" lon="7.01139">
        <ele>1300.32</ele>
        <time>2015-09-26T10:28:55Z</time>
      </trkpt>
      <trkpt lat="48.04205" lon="7.0112">
        <ele>1295.99</ele>
        <time>2015-09-26T10:29:23Z</time>
      </trkpt>
      <trkpt lat="48.04185" lon="7.01111">
        <ele>1295.99</ele>
        <time>2015-09-26T10:29:39Z</time>
      </trkpt>
      <trkpt lat="48.04154" lon="7.01098">
        <ele>1295.51</ele>
        <time>2015-09-26T10:30:49Z</time>
      </trkpt>
      <trkpt lat="48.04141" lon="7.0108">
        <ele>1297.44</ele>
        <time>2015-09-26T10:31:05Z</time>
      </trkpt>
      <trkpt lat="48.04133" lon="7.01043">
        <ele>1291.19</ele>
        <time>2015-09-26T10:31:26Z</time>
      </trkpt>
      <trkpt lat="48.04126" lon="7.01008">
        <ele>1288.3</ele>
        <time>2015-09-26T10:31:46Z</time>
      </trkpt>
      <trkpt lat="48.0412" lon="7.00983">
        <ele>1286.38</ele>
        <time>2015-09-26T10:32:03Z</time>
      </trkpt>
      <trkpt lat="48.04129" lon="7.00936">
        <ele>1288.78</ele>
        <time>2015-09-26T11:07:28Z</time>
      </trkpt>
      <trkpt lat="48.0412" lon="7.00979">
        <ele>1294.07</ele>
        <time>2015-09-26T11:20:03Z</time>
      </trkpt>
      <trkpt lat="48.04127" lon="7.01018">
        <ele>1293.11</ele>
        <time>2015-09-26T11:20:27Z</time>
      </trkpt>
      <trkpt lat="48.04139" lon="7.01061">
        <ele>1295.03</ele>
        <time>2015-09-26T11:20:58Z</time>
      </trkpt>
      <trkpt lat="48.0415" lon="7.01094">
        <ele>1300.32</ele>
        <time>2015-09-26T11:21:22Z</time>
      </trkpt>
      <trkpt lat="48.04161" lon="7.01132">
        <ele>1302.72</ele>
        <time>2015-09-26T11:22:01Z</time>
      </trkpt>
      <trkpt lat="48.04149" lon="7.01162">
        <ele>1306.09</ele>
        <time>2015-09-26T11:22:31Z</time>
      </trkpt>
      <trkpt lat="48.04135" lon="7.01202">
        <ele>1310.41</ele>
        <time>2015-09-26T11:23:13Z</time>
      </trkpt>
      <trkpt lat="48.04132" lon="7.01229">
        <ele>1313.3</ele>
        <time>2015-09-26T11:23:36Z</time>
      </trkpt>
      <trkpt lat="48.04118" lon="7.01268">
        <ele>1317.62</ele>
        <time>2015-09-26T11:24:10Z</time>
      </trkpt>
      <trkpt lat="48.04089" lon="7.01288">
        <ele>1322.91</ele>
        <time>2015-09-26T11:24:47Z</time>
      </trkpt>
      <trkpt lat="48.0408" lon="7.01317">
        <ele>1321.95</ele>
        <time>2015-09-26T11:25:09Z</time>
      </trkpt>
      <trkpt lat="48.04077" lon="7.01367">
        <ele>1322.91</ele>
        <time>2015-09-26T11:25:42Z</time>
      </trkpt>
      <trkpt lat="48.04077" lon="7.01416">
        <ele>1320.99</ele>
        <time>2015-09-26T11:26:11Z</time>
      </trkpt>
      <trkpt lat="48.04065" lon="7.01446">
        <ele>1324.35</ele>
        <time>2015-09-26T11:26:31Z</time>
      </trkpt>
      <trkpt lat="48.04052" lon="7.01472">
        <ele>1325.31</ele>
        <time>2015-09-26T11:26:51Z</time>
      </trkpt>
      <trkpt lat="48.0404" lon="7.01495">
        <ele>1326.76</ele>
        <time>2015-09-26T11:27:07Z</time>
      </trkpt>
      <trkpt lat="48.04027" lon="7.01515">
        <ele>1326.76</ele>
        <time>2015-09-26T11:27:22Z</time>
      </trkpt>
      <trkpt lat="48.04015" lon="7.01535">
        <ele>1328.2</ele>
        <time>2015-09-26T11:27:38Z</time>
      </trkpt>
      <trkpt lat="48.03989" lon="7.01563">
        <ele>1331.08</ele>
        <time>2015-09-26T11:28:26Z</time>
      </trkpt>
      <trkpt lat="48.03974" lon="7.01585">
        <ele>1332.04</ele>
        <time>2015-09-26T11:28:43Z</time>
      </trkpt>
      <trkpt lat="48.03962" lon="7.01605">
        <ele>1332.04</ele>
        <time>2015-09-26T11:28:57Z</time>
      </trkpt>
      <trkpt lat="48.03946" lon="7.01627">
        <ele>1333.49</ele>
        <time>2015-09-26T11:29:14Z</time>
      </trkpt>
      <trkpt lat="48.03934" lon="7.01651">
        <ele>1333.01</ele>
        <time>2015-09-26T11:29:31Z</time>
      </trkpt>
      <trkpt lat="48.03926" lon="7.01684">
        <ele>1331.56</ele>
        <time>2015-09-26T11:29:51Z</time>
      </trkpt>
      <trkpt lat="48.0392" lon="7.01721">
        <ele>1330.12</ele>
        <time>2015-09-26T11:30:12Z</time>
      </trkpt>
      <trkpt lat="48.03911" lon="7.01758">
        <ele>1328.68</ele>
        <time>2015-09-26T11:31:02Z</time>
      </trkpt>
      <trkpt lat="48.03902" lon="7.0179">
        <ele>1326.76</ele>
        <time>2015-09-26T11:31:21Z</time>
      </trkpt>
      <trkpt lat="48.03889" lon="7.01823">
        <ele>1325.8</ele>
        <time>2015-09-26T11:31:41Z</time>
      </trkpt>
      <trkpt lat="48.03881" lon="7.01847">
        <ele>1325.31</ele>
        <time>2015-09-26T11:31:56Z</time>
      </trkpt>
      <trkpt lat="48.03869" lon="7.01869">
        <ele>1324.35</ele>
        <time>2015-09-26T11:32:12Z</time>
      </trkpt>
      <trkpt lat="48.03856" lon="7.01892">
        <ele>1323.87</ele>
        <time>2015-09-26T11:32:38Z</time>
      </trkpt>
      <trkpt lat="48.03832" lon="7.01931">
        <ele>1320.51</ele>
        <time>2015-09-26T11:33:11Z</time>
      </trkpt>
      <trkpt lat="48.03829" lon="7.01974">
        <ele>1312.82</ele>
        <time>2015-09-26T11:34:04Z</time>
      </trkpt>
      <trkpt lat="48.03817" lon="7.02043">
        <ele>1303.2</ele>
        <time>2015-09-26T11:34:58Z</time>
      </trkpt>
      <trkpt lat="48.03817" lon="7.02076">
        <ele>1298.88</ele>
        <time>2015-09-26T11:35:36Z</time>
      </trkpt>
      <trkpt lat="48.03805" lon="7.02118">
        <ele>1296.96</ele>
        <time>2015-09-26T11:36:11Z</time>
      </trkpt>
      <trkpt lat="48.03797" lon="7.02155">
        <ele>1292.15</ele>
        <time>2015-09-26T11:36:35Z</time>
      </trkpt>
      <trkpt lat="48.03794" lon="7.02182">
        <ele>1289.75</ele>
        <time>2015-09-26T11:36:52Z</time>
      </trkpt>
      <trkpt lat="48.03786" lon="7.02209">
        <ele>1288.3</ele>
        <time>2015-09-26T11:37:18Z</time>
      </trkpt>
      <trkpt lat="48.03778" lon="7.02235">
        <ele>1283.98</ele>
        <time>2015-09-26T11:37:42Z</time>
      </trkpt>
      <trkpt lat="48.03769" lon="7.02258">
        <ele>1282.06</ele>
        <time>2015-09-26T11:37:58Z</time>
      </trkpt>
      <trkpt lat="48.03754" lon="7.02275">
        <ele>1281.57</ele>
        <time>2015-09-26T11:38:14Z</time>
      </trkpt>
      <trkpt lat="48.03741" lon="7.023">
        <ele>1276.77</ele>
        <time>2015-09-26T11:38:51Z</time>
      </trkpt>
      <trkpt lat="48.0373" lon="7.0232">
        <ele>1273.4</ele>
        <time>2015-09-26T11:39:29Z</time>
      </trkpt>
      <trkpt lat="48.03711" lon="7.02369">
        <ele>1264.75</ele>
        <time>2015-09-26T11:40:12Z</time>
      </trkpt>
      <trkpt lat="48.03694" lon="7.02453">
        <ele>1250.81</ele>
        <time>2015-09-26T11:41:16Z</time>
      </trkpt>
      <trkpt lat="48.03686" lon="7.02478">
        <ele>1247.93</ele>
        <time>2015-09-26T11:41:34Z</time>
      </trkpt>
      <trkpt lat="48.03665" lon="7.02528">
        <ele>1240.72</ele>
        <time>2015-09-26T11:42:20Z</time>
      </trkpt>
      <trkpt lat="48.03641" lon="7.02558">
        <ele>1235.43</ele>
        <time>2015-09-26T11:43:06Z</time>
      </trkpt>
      <trkpt lat="48.0365" lon="7.02518">
        <ele>1241.2</ele>
        <time>2015-09-26T11:47:45Z</time>
      </trkpt>
      <trkpt lat="48.03619" lon="7.02455">
        <ele>1255.14</ele>
        <time>2015-09-26T11:49:42Z</time>
      </trkpt>
      <trkpt lat="48.03606" lon="7.02432">
        <ele>1259.94</ele>
        <time>2015-09-26T11:50:07Z</time>
      </trkpt>
      <trkpt lat="48.03599" lon="7.02406">
        <ele>1261.39</ele>
        <time>2015-09-26T11:50:38Z</time>
      </trkpt>
      <trkpt lat="48.03598" lon="7.0238">
        <ele>1263.31</ele>
        <time>2015-09-26T11:51:09Z</time>
      </trkpt>
      <trkpt lat="48.03606" lon="7.02337">
        <ele>1270.04</ele>
        <time>2015-09-26T11:53:36Z</time>
      </trkpt>
      <trkpt lat="48.03623" lon="7.02331">
        <ele>1271.96</ele>
        <time>2015-09-26T11:56:08Z</time>
      </trkpt>
      <trkpt lat="48.03636" lon="7.02284">
        <ele>1277.73</ele>
        <time>2015-09-26T11:56:46Z</time>
      </trkpt>
      <trkpt lat="48.03646" lon="7.02248">
        <ele>1283.5</ele>
        <time>2015-09-26T11:57:17Z</time>
      </trkpt>
      <trkpt lat="48.0365" lon="7.02208">
        <ele>1287.82</ele>
        <time>2015-09-26T11:57:48Z</time>
      </trkpt>
      <trkpt lat="48.0366" lon="7.02162">
        <ele>1293.11</ele>
        <time>2015-09-26T11:58:21Z</time>
      </trkpt>
      <trkpt lat="48.03663" lon="7.02134">
        <ele>1294.55</ele>
        <time>2015-09-26T11:58:37Z</time>
      </trkpt>
      <trkpt lat="48.03664" lon="7.02105">
        <ele>1295.51</ele>
        <time>2015-09-26T11:58:52Z</time>
      </trkpt>
      <trkpt lat="48.03664" lon="7.02071">
        <ele>1295.99</ele>
        <time>2015-09-26T11:59:19Z</time>
      </trkpt>
      <trkpt lat="48.03664" lon="7.02034">
        <ele>1296.96</ele>
        <time>2015-09-26T11:59:43Z</time>
      </trkpt>
      <trkpt lat="48.03661" lon="7.02006">
        <ele>1298.88</ele>
        <time>2015-09-26T11:59:59Z</time>
      </trkpt>
      <trkpt lat="48.03655" lon="7.01974">
        <ele>1303.2</ele>
        <time>2015-09-26T12:00:31Z</time>
      </trkpt>
      <trkpt lat="48.03651" lon="7.01947">
        <ele>1306.09</ele>
        <time>2015-09-26T12:00:50Z</time>
      </trkpt>
      <trkpt lat="48.03622" lon="7.01909">
        <ele>1316.18</ele>
        <time>2015-09-26T12:02:08Z</time>
      </trkpt>
      <trkpt lat="48.03603" lon="7.01877">
        <ele>1322.43</ele>
        <time>2015-09-26T12:02:55Z</time>
      </trkpt>
      <trkpt lat="48.03631" lon="7.01847">
        <ele>1327.72</ele>
        <time>2015-09-26T12:04:03Z</time>
      </trkpt>
      <trkpt lat="48.03647" lon="7.0183">
        <ele>1329.16</ele>
        <time>2015-09-26T12:04:20Z</time>
      </trkpt>
      <trkpt lat="48.03664" lon="7.01799">
        <ele>1334.93</ele>
        <time>2015-09-26T12:04:48Z</time>
      </trkpt>
      <trkpt lat="48.03684" lon="7.01763">
        <ele>1340.22</ele>
        <time>2015-09-26T12:07:11Z</time>
      </trkpt>
      <trkpt lat="48.03705" lon="7.01724">
        <ele>1347.43</ele>
        <time>2015-09-26T12:07:47Z</time>
      </trkpt>
      <trkpt lat="48.03717" lon="7.01699">
        <ele>1351.75</ele>
        <time>2015-09-26T12:08:08Z</time>
      </trkpt>
      <trkpt lat="48.03723" lon="7.01675">
        <ele>1357.04</ele>
        <time>2015-09-26T12:08:29Z</time>
      </trkpt>
      <trkpt lat="48.03752" lon="7.0163">
        <ele>1362.81</ele>
        <time>2015-09-26T12:09:21Z</time>
      </trkpt>
      <trkpt lat="48.03742" lon="7.01586">
        <ele>1360.88</ele>
        <time>2015-09-26T12:15:42Z</time>
      </trkpt>
      <trkpt lat="48.03737" lon="7.01549">
        <ele>1358.96</ele>
        <time>2015-09-26T12:18:04Z</time>
      </trkpt>
      <trkpt lat="48.0372" lon="7.01504">
        <ele>1353.19</ele>
        <time>2015-09-26T12:19:16Z</time>
      </trkpt>
      <trkpt lat="48.03715" lon="7.01477">
        <ele>1348.87</ele>
        <time>2015-09-26T12:19:35Z</time>
      </trkpt>
      <trkpt lat="48.03698" lon="7.0145">
        <ele>1344.54</ele>
        <time>2015-09-26T12:20:02Z</time>
      </trkpt>
      <trkpt lat="48.03689" lon="7.01411">
        <ele>1337.33</ele>
        <time>2015-09-26T12:20:37Z</time>
      </trkpt>
      <trkpt lat="48.03679" lon="7.0138">
        <ele>1334.45</ele>
        <time>2015-09-26T12:21:04Z</time>
      </trkpt>
      <trkpt lat="48.03669" lon="7.01309">
        <ele>1325.31</ele>
        <time>2015-09-26T12:23:13Z</time>
      </trkpt>
      <trkpt lat="48.03657" lon="7.01275">
        <ele>1319.07</ele>
        <time>2015-09-26T12:23:45Z</time>
      </trkpt>
      <trkpt lat="48.0362" lon="7.01264">
        <ele>1308.97</ele>
        <time>2015-09-26T12:24:41Z</time>
      </trkpt>
      <trkpt lat="48.03597" lon="7.01236">
        <ele>1304.65</ele>
        <time>2015-09-26T12:25:10Z</time>
      </trkpt>
      <trkpt lat="48.03576" lon="7.01208">
        <ele>1300.32</ele>
        <time>2015-09-26T12:25:41Z</time>
      </trkpt>
      <trkpt lat="48.0356" lon="7.01193">
        <ele>1295.99</ele>
        <time>2015-09-26T12:26:09Z</time>
      </trkpt>
      <trkpt lat="48.03542" lon="7.01183">
        <ele>1289.75</ele>
        <time>2015-09-26T12:26:44Z</time>
      </trkpt>
      <trkpt lat="48.0352" lon="7.01137">
        <ele>1282.54</ele>
        <time>2015-09-26T12:27:34Z</time>
      </trkpt>
      <trkpt lat="48.03501" lon="7.01131">
        <ele>1280.13</ele>
        <time>2015-09-26T12:27:55Z</time>
      </trkpt>
      <trkpt lat="48.03477" lon="7.01086">
        <ele>1279.65</ele>
        <time>2015-09-26T12:36:34Z</time>
      </trkpt>
      <trkpt lat="48.03482" lon="7.01054">
        <ele>1278.69</ele>
        <time>2015-09-26T12:37:04Z</time>
      </trkpt>
      <trkpt lat="48.03504" lon="7.01074">
        <ele>1280.13</ele>
        <time>2015-09-26T12:41:53Z</time>
      </trkpt>
      <trkpt lat="48.03524" lon="7.01083">
        <ele>1280.13</ele>
        <time>2015-09-26T12:42:09Z</time>
      </trkpt>
      <trkpt lat="48.03548" lon="7.01084">
        <ele>1281.09</ele>
        <time>2015-09-26T12:42:26Z</time>
      </trkpt>
      <trkpt lat="48.03568" lon="7.01087">
        <ele>1282.54</ele>
        <time>2015-09-26T12:42:42Z</time>
      </trkpt>
      <trkpt lat="48.03585" lon="7.01093">
        <ele>1284.94</ele>
        <time>2015-09-26T12:43:00Z</time>
      </trkpt>
      <trkpt lat="48.03612" lon="7.01092">
        <ele>1287.34</ele>
        <time>2015-09-26T12:43:35Z</time>
      </trkpt>
      <trkpt lat="48.03631" lon="7.01082">
        <ele>1286.38</ele>
        <time>2015-09-26T12:43:52Z</time>
      </trkpt>
      <trkpt lat="48.03671" lon="7.0107">
        <ele>1286.86</ele>
        <time>2015-09-26T12:44:41Z</time>
      </trkpt>
      <trkpt lat="48.03704" lon="7.01077">
        <ele>1288.78</ele>
        <time>2015-09-26T12:45:13Z</time>
      </trkpt>
      <trkpt lat="48.03742" lon="7.01081">
        <ele>1289.75</ele>
        <time>2015-09-26T12:45:50Z</time>
      </trkpt>
      <trkpt lat="48.0377" lon="7.01084">
        <ele>1291.19</ele>
        <time>2015-09-26T12:46:18Z</time>
      </trkpt>
      <trkpt lat="48.03788" lon="7.01085">
        <ele>1291.19</ele>
        <time>2015-09-26T12:46:35Z</time>
      </trkpt>
      <trkpt lat="48.03805" lon="7.01086">
        <ele>1291.67</ele>
        <time>2015-09-26T12:46:50Z</time>
      </trkpt>
      <trkpt lat="48.03835" lon="7.01083">
        <ele>1291.67</ele>
        <time>2015-09-26T12:47:20Z</time>
      </trkpt>
      <trkpt lat="48.03866" lon="7.01084">
        <ele>1292.15</ele>
        <time>2015-09-26T12:48:15Z</time>
      </trkpt>
      <trkpt lat="48.03892" lon="7.01087">
        <ele>1294.07</ele>
        <time>2015-09-26T12:48:38Z</time>
      </trkpt>
      <trkpt lat="48.03919" lon="7.01088">
        <ele>1293.59</ele>
        <time>2015-09-26T12:49:05Z</time>
      </trkpt>
      <trkpt lat="48.03955" lon="7.01089">
        <ele>1293.59</ele>
        <time>2015-09-26T12:49:37Z</time>
      </trkpt>
      <trkpt lat="48.0397" lon="7.01077">
        <ele>1292.15</ele>
        <time>2015-09-26T12:50:02Z</time>
      </trkpt>
      <trkpt lat="48.0398" lon="7.01051">
        <ele>1286.38</ele>
        <time>2015-09-26T12:50:28Z</time>
      </trkpt>
      <trkpt lat="48.03995" lon="7.01032">
        <ele>1282.54</ele>
        <time>2015-09-26T12:51:37Z</time>
      </trkpt>
      <trkpt lat="48.04004" lon="7.01004">
        <ele>1278.69</ele>
        <time>2015-09-26T12:53:08Z</time>
      </trkpt>
      <trkpt lat="48.04013" lon="7.00961">
        <ele>1271</ele>
        <time>2015-09-26T12:53:42Z</time>
      </trkpt>
      <trkpt lat="48.0403" lon="7.00924">
        <ele>1269.08</ele>
        <time>2015-09-26T12:54:12Z</time>
      </trkpt>
      <trkpt lat="48.04032" lon="7.00898">
        <ele>1268.12</ele>
        <time>2015-09-26T12:55:16Z</time>
      </trkpt>
      <trkpt lat="48.04042" lon="7.00869">
        <ele>1265.71</ele>
        <time>2015-09-26T12:56:06Z</time>
      </trkpt>
      <trkpt lat="48.0405" lon="7.00819">
        <ele>1265.23</ele>
        <time>2015-09-26T12:56:38Z</time>
      </trkpt>
      <trkpt lat="48.04056" lon="7.00794">
        <ele>1264.75</ele>
        <time>2015-09-26T12:56:54Z</time>
      </trkpt>
      <trkpt lat="48.04056" lon="7.00762">
        <ele>1260.91</ele>
        <time>2015-09-26T12:57:19Z</time>
      </trkpt>
      <trkpt lat="48.0406" lon="7.00735">
        <ele>1259.46</ele>
        <time>2015-09-26T12:57:35Z</time>
      </trkpt>
      <trkpt lat="48.04061" lon="7.00689">
        <ele>1255.14</ele>
        <time>2015-09-26T12:58:05Z</time>
      </trkpt>
      <trkpt lat="48.04068" lon="7.00645">
        <ele>1251.29</ele>
        <time>2015-09-26T12:58:36Z</time>
      </trkpt>
      <trkpt lat="48.04075" lon="7.00619">
        <ele>1248.41</ele>
        <time>2015-09-26T12:58:55Z</time>
      </trkpt>
      <trkpt lat="48.0409" lon="7.00584">
        <ele>1244.56</ele>
        <time>2015-09-26T12:59:31Z</time>
      </trkpt>
      <trkpt lat="48.04101" lon="7.00543">
        <ele>1240.24</ele>
        <time>2015-09-26T13:00:32Z</time>
      </trkpt>
      <trkpt lat="48.04111" lon="7.00513">
        <ele>1238.32</ele>
        <time>2015-09-26T13:00:56Z</time>
      </trkpt>
      <trkpt lat="48.0412" lon="7.00489">
        <ele>1235.91</ele>
        <time>2015-09-26T13:01:23Z</time>
      </trkpt>
      <trkpt lat="48.04161" lon="7.00431">
        <ele>1229.18</ele>
        <time>2015-09-26T13:02:22Z</time>
      </trkpt>
      <trkpt lat="48.04176" lon="7.00403">
        <ele>1224.38</ele>
        <time>2015-09-26T13:02:50Z</time>
      </trkpt>
      <trkpt lat="48.04211" lon="7.00361">
        <ele>1218.13</ele>
        <time>2015-09-26T13:03:34Z</time>
      </trkpt>
      <trkpt lat="48.04233" lon="7.00326">
        <ele>1214.76</ele>
        <time>2015-09-26T13:04:08Z</time>
      </trkpt>
      <trkpt lat="48.04256" lon="7.00308">
        <ele>1211.4</ele>
        <time>2015-09-26T13:04:35Z</time>
      </trkpt>
      <trkpt lat="48.0428" lon="7.00297">
        <ele>1208.51</ele>
        <time>2015-09-26T13:05:05Z</time>
      </trkpt>
      <trkpt lat="48.04299" lon="7.00287">
        <ele>1204.67</ele>
        <time>2015-09-26T13:06:28Z</time>
      </trkpt>
      <trkpt lat="48.04279" lon="7.00272">
        <ele>1203.23</ele>
        <time>2015-09-26T13:06:48Z</time>
      </trkpt>
      <trkpt lat="48.0427" lon="7.00242">
        <ele>1200.34</ele>
        <time>2015-09-26T13:07:16Z</time>
      </trkpt>
      <trkpt lat="48.04283" lon="7.00218">
        <ele>1193.61</ele>
        <time>2015-09-26T13:07:54Z</time>
      </trkpt>
      <trkpt lat="48.04313" lon="7.00191">
        <ele>1186.4</ele>
        <time>2015-09-26T13:08:37Z</time>
      </trkpt>
      <trkpt lat="48.04334" lon="7.00201">
        <ele>1183.04</ele>
        <time>2015-09-26T13:09:03Z</time>
      </trkpt>
      <trkpt lat="48.04331" lon="7.00164">
        <ele>1178.71</ele>
        <time>2015-09-26T13:09:31Z</time>
      </trkpt>
      <trkpt lat="48.04317" lon="7.00126">
        <ele>1173.91</ele>
        <time>2015-09-26T13:10:14Z</time>
      </trkpt>
      <trkpt lat="48.04301" lon="7.00107">
        <ele>1172.47</ele>
        <time>2015-09-26T13:10:32Z</time>
      </trkpt>
      <trkpt lat="48.04304" lon="7.00076">
        <ele>1165.74</ele>
        <time>2015-09-26T13:11:16Z</time>
      </trkpt>
      <trkpt lat="48.04317" lon="7.00037">
        <ele>1153.24</ele>
        <time>2015-09-26T13:12:45Z</time>
      </trkpt>
      <trkpt lat="48.04293" lon="7.00006">
        <ele>1147.95</ele>
        <time>2015-09-26T13:13:18Z</time>
      </trkpt>
      <trkpt lat="48.04264" lon="6.99998">
        <ele>1143.63</ele>
        <time>2015-09-26T13:13:52Z</time>
      </trkpt>
      <trkpt lat="48.04235" lon="6.99982">
        <ele>1136.42</ele>
        <time>2015-09-26T13:14:25Z</time>
      </trkpt>
      <trkpt lat="48.04189" lon="6.99964">
        <ele>1128.73</ele>
        <time>2015-09-26T13:15:15Z</time>
      </trkpt>
      <trkpt lat="48.0417" lon="6.99948">
        <ele>1125.84</ele>
        <time>2015-09-26T13:15:37Z</time>
      </trkpt>
      <trkpt lat="48.04154" lon="6.99937">
        <ele>1123.44</ele>
        <time>2015-09-26T13:15:53Z</time>
      </trkpt>
      <trkpt lat="48.04135" lon="6.9994">
        <ele>1121.03</ele>
        <time>2015-09-26T13:16:11Z</time>
      </trkpt>
      <trkpt lat="48.0414" lon="6.99909">
        <ele>1118.15</ele>
        <time>2015-09-26T13:23:10Z</time>
      </trkpt>
      <trkpt lat="48.04165" lon="6.99895">
        <ele>1115.27</ele>
        <time>2015-09-26T13:23:38Z</time>
      </trkpt>
      <trkpt lat="48.04193" lon="6.99875">
        <ele>1112.38</ele>
        <time>2015-09-26T13:24:08Z</time>
      </trkpt>
      <trkpt lat="48.04223" lon="6.99848">
        <ele>1109.5</ele>
        <time>2015-09-26T13:24:40Z</time>
      </trkpt>
      <trkpt lat="48.04251" lon="6.99842">
        <ele>1107.1</ele>
        <time>2015-09-26T13:25:02Z</time>
      </trkpt>
      <trkpt lat="48.04281" lon="6.99843">
        <ele>1106.61</ele>
        <time>2015-09-26T13:25:33Z</time>
      </trkpt>
      <trkpt lat="48.04315" lon="6.99874">
        <ele>1104.21</ele>
        <time>2015-09-26T13:28:27Z</time>
      </trkpt>
      <trkpt lat="48.04332" lon="6.99893">
        <ele>1103.73</ele>
        <time>2015-09-26T13:28:49Z</time>
      </trkpt>
      <trkpt lat="48.04356" lon="6.99925">
        <ele>1102.77</ele>
        <time>2015-09-26T13:29:11Z</time>
      </trkpt>
      <trkpt lat="48.04374" lon="6.99953">
        <ele>1102.29</ele>
        <time>2015-09-26T13:29:30Z</time>
      </trkpt>
      <trkpt lat="48.04392" lon="6.99975">
        <ele>1102.77</ele>
        <time>2015-09-26T13:29:49Z</time>
      </trkpt>
      <trkpt lat="48.04412" lon="7.00003">
        <ele>1103.73</ele>
        <time>2015-09-26T13:30:07Z</time>
      </trkpt>
      <trkpt lat="48.04429" lon="7.00048">
        <ele>1105.65</ele>
        <time>2015-09-26T13:30:28Z</time>
      </trkpt>
      <trkpt lat="48.04439" lon="7.00101">
        <ele>1108.06</ele>
        <time>2015-09-26T13:30:54Z</time>
      </trkpt>
      <trkpt lat="48.04448" lon="7.00144">
        <ele>1109.02</ele>
        <time>2015-09-26T13:31:13Z</time>
      </trkpt>
      <trkpt lat="48.04457" lon="7.00189">
        <ele>1108.06</ele>
        <time>2015-09-26T13:31:34Z</time>
      </trkpt>
      <trkpt lat="48.04458" lon="7.00222">
        <ele>1109.02</ele>
        <time>2015-09-26T13:31:51Z</time>
      </trkpt>
      <trkpt lat="48.04474" lon="7.00258">
        <ele>1112.86</ele>
        <time>2015-09-26T13:32:17Z</time>
      </trkpt>
      <trkpt lat="48.04492" lon="7.00289">
        <ele>1113.82</ele>
        <time>2015-09-26T13:32:34Z</time>
      </trkpt>
      <trkpt lat="48.04501" lon="7.00315">
        <ele>1116.71</ele>
        <time>2015-09-26T13:32:56Z</time>
      </trkpt>
      <trkpt lat="48.0453" lon="7.00344">
        <ele>1115.75</ele>
        <time>2015-09-26T13:33:24Z</time>
      </trkpt>
      <trkpt lat="48.04558" lon="7.00377">
        <ele>1115.75</ele>
        <time>2015-09-26T13:34:08Z</time>
      </trkpt>
      <trkpt lat="48.04586" lon="7.00392">
        <ele>1116.23</ele>
        <time>2015-09-26T13:35:22Z</time>
      </trkpt>
      <trkpt lat="48.04611" lon="7.00411">
        <ele>1116.23</ele>
        <time>2015-09-26T13:35:52Z</time>
      </trkpt>
      <trkpt lat="48.04627" lon="7.00432">
        <ele>1116.23</ele>
        <time>2015-09-26T13:36:15Z</time>
      </trkpt>
      <trkpt lat="48.04675" lon="7.00442">
        <ele>1116.23</ele>
        <time>2015-09-26T13:36:52Z</time>
      </trkpt>
      <trkpt lat="48.0471" lon="7.00449">
        <ele>1116.23</ele>
        <time>2015-09-26T13:37:26Z</time>
      </trkpt>
      <trkpt lat="48.0474" lon="7.00456">
        <ele>1114.79</ele>
        <time>2015-09-26T13:37:54Z</time>
      </trkpt>
      <trkpt lat="48.04776" lon="7.00459">
        <ele>1114.31</ele>
        <time>2015-09-26T13:38:24Z</time>
      </trkpt>
      <trkpt lat="48.04807" lon="7.00456">
        <ele>1114.31</ele>
        <time>2015-09-26T13:38:51Z</time>
      </trkpt>
      <trkpt lat="48.04824" lon="7.00445">
        <ele>1113.34</ele>
        <time>2015-09-26T13:39:10Z</time>
      </trkpt>
      <trkpt lat="48.04854" lon="7.0044">
        <ele>1112.38</ele>
        <time>2015-09-26T13:39:42Z</time>
      </trkpt>
      <trkpt lat="48.04877" lon="7.00436">
        <ele>1111.9</ele>
        <time>2015-09-26T13:40:02Z</time>
      </trkpt>
      <trkpt lat="48.04896" lon="7.00432">
        <ele>1111.9</ele>
        <time>2015-09-26T13:40:21Z</time>
      </trkpt>
      <trkpt lat="48.04914" lon="7.00433">
        <ele>1111.9</ele>
        <time>2015-09-26T13:40:30Z</time>
      </trkpt>
      <trkpt lat="48.04966" lon="7.00422">
        <ele>1112.38</ele>
        <time>2015-09-26T13:42:11Z</time>
      </trkpt>
      <trkpt lat="48.04986" lon="7.0043">
        <ele>1112.38</ele>
        <time>2015-09-26T13:42:31Z</time>
      </trkpt>
      <trkpt lat="48.05026" lon="7.00449">
        <ele>1113.34</ele>
        <time>2015-09-26T13:43:29Z</time>
      </trkpt>
      <trkpt lat="48.0506" lon="7.00464">
        <ele>1113.34</ele>
        <time>2015-09-26T13:44:17Z</time>
      </trkpt>
      <trkpt lat="48.05095" lon="7.00469">
        <ele>1113.82</ele>
        <time>2015-09-26T13:45:08Z</time>
      </trkpt>
      <trkpt lat="48.0513" lon="7.00473">
        <ele>1113.34</ele>
        <time>2015-09-26T13:45:37Z</time>
      </trkpt>
      <trkpt lat="48.05162" lon="7.00474">
        <ele>1113.34</ele>
        <time>2015-09-26T13:46:02Z</time>
      </trkpt>
      <trkpt lat="48.05185" lon="7.00478">
        <ele>1112.38</ele>
        <time>2015-09-26T13:46:20Z</time>
      </trkpt>
      <trkpt lat="48.05205" lon="7.00482">
        <ele>1112.86</ele>
        <time>2015-09-26T13:46:36Z</time>
      </trkpt>
      <trkpt lat="48.05223" lon="7.00495">
        <ele>1113.34</ele>
        <time>2015-09-26T13:46:52Z</time>
      </trkpt>
      <trkpt lat="48.05269" lon="7.00513">
        <ele>1113.34</ele>
        <time>2015-09-26T13:47:29Z</time>
      </trkpt>
      <trkpt lat="48.05288" lon="7.00525">
        <ele>1113.82</ele>
        <time>2015-09-26T13:47:46Z</time>
      </trkpt>
      <trkpt lat="48.05315" lon="7.00541">
        <ele>1114.31</ele>
        <time>2015-09-26T13:48:09Z</time>
      </trkpt>
      <trkpt lat="48.05337" lon="7.00566">
        <ele>1114.79</ele>
        <time>2015-09-26T13:48:37Z</time>
      </trkpt>
      <trkpt lat="48.05358" lon="7.00529">
        <ele>1115.75</ele>
        <time>2015-09-26T13:50:26Z</time>
      </trkpt>
      <trkpt lat="48.05386" lon="7.00517">
        <ele>1116.71</ele>
        <time>2015-09-26T13:50:58Z</time>
      </trkpt>
      <trkpt lat="48.05413" lon="7.00483">
        <ele>1116.23</ele>
        <time>2015-09-26T13:52:07Z</time>
      </trkpt>
      <trkpt lat="48.0543" lon="7.00498">
        <ele>1116.23</ele>
        <time>2015-09-26T13:52:36Z</time>
      </trkpt>
      <trkpt lat="48.05466" lon="7.00536">
        <ele>1116.71</ele>
        <time>2015-09-26T13:53:31Z</time>
      </trkpt>
      <trkpt lat="48.0548" lon="7.00555">
        <ele>1116.23</ele>
        <time>2015-09-26T13:53:46Z</time>
      </trkpt>
      <trkpt lat="48.0551" lon="7.00602">
        <ele>1119.11</ele>
        <time>2015-09-26T13:54:29Z</time>
      </trkpt>
      <trkpt lat="48.0553" lon="7.00631">
        <ele>1122</ele>
        <time>2015-09-26T13:54:57Z</time>
      </trkpt>
      <trkpt lat="48.05543" lon="7.00653">
        <ele>1123.44</ele>
        <time>2015-09-26T13:55:14Z</time>
      </trkpt>
      <trkpt lat="48.05563" lon="7.00689">
        <ele>1125.84</ele>
        <time>2015-09-26T13:55:45Z</time>
      </trkpt>
      <trkpt lat="48.05588" lon="7.00728">
        <ele>1128.73</ele>
        <time>2015-09-26T13:56:19Z</time>
      </trkpt>
      <trkpt lat="48.05614" lon="7.00772">
        <ele>1131.61</ele>
        <time>2015-09-26T13:56:56Z</time>
      </trkpt>
      <trkpt lat="48.05624" lon="7.00796">
        <ele>1133.05</ele>
        <time>2015-09-26T13:57:17Z</time>
      </trkpt>
      <trkpt lat="48.05646" lon="7.00861">
        <ele>1136.9</ele>
        <time>2015-09-26T13:58:06Z</time>
      </trkpt>
      <trkpt lat="48.05656" lon="7.00925">
        <ele>1139.78</ele>
        <time>2015-09-26T13:58:48Z</time>
      </trkpt>
      <trkpt lat="48.05656" lon="7.00958">
        <ele>1141.7</ele>
        <time>2015-09-26T13:59:08Z</time>
      </trkpt>
      <trkpt lat="48.05663" lon="7.01008">
        <ele>1144.59</ele>
        <time>2015-09-26T13:59:41Z</time>
      </trkpt>
      <trkpt lat="48.05669" lon="7.01038">
        <ele>1146.03</ele>
        <time>2015-09-26T14:00:02Z</time>
      </trkpt>
      <trkpt lat="48.05669" lon="7.01064">
        <ele>1147.47</ele>
        <time>2015-09-26T14:00:17Z</time>
      </trkpt>
      <trkpt lat="48.05671" lon="7.01099">
        <ele>1148.91</ele>
        <time>2015-09-26T14:00:35Z</time>
      </trkpt>
      <trkpt lat="48.05678" lon="7.01138">
        <ele>1150.84</ele>
        <time>2015-09-26T14:00:55Z</time>
      </trkpt>
      <trkpt lat="48.05687" lon="7.01165">
        <ele>1152.76</ele>
        <time>2015-09-26T14:01:12Z</time>
      </trkpt>
      <trkpt lat="48.05708" lon="7.01229">
        <ele>1157.08</ele>
        <time>2015-09-26T14:02:02Z</time>
      </trkpt>
      <trkpt lat="48.05724" lon="7.01265">
        <ele>1159.49</ele>
        <time>2015-09-26T14:02:36Z</time>
      </trkpt>
      <trkpt lat="48.05755" lon="7.01279">
        <ele>1160.45</ele>
        <time>2015-09-26T14:02:59Z</time>
      </trkpt>
      <trkpt lat="48.05775" lon="7.01286">
        <ele>1160.93</ele>
        <time>2015-09-26T14:03:18Z</time>
      </trkpt>
      <trkpt lat="48.05794" lon="7.01293">
        <ele>1161.41</ele>
        <time>2015-09-26T14:03:34Z</time>
      </trkpt>
      <trkpt lat="48.05834" lon="7.01308">
        <ele>1161.89</ele>
        <time>2015-09-26T14:04:11Z</time>
      </trkpt>
      <trkpt lat="48.05853" lon="7.01315">
        <ele>1161.41</ele>
        <time>2015-09-26T14:04:28Z</time>
      </trkpt>
      <trkpt lat="48.05886" lon="7.01322">
        <ele>1160.45</ele>
        <time>2015-09-26T14:04:58Z</time>
      </trkpt>
      <trkpt lat="48.05924" lon="7.01337">
        <ele>1159.49</ele>
        <time>2015-09-26T14:05:28Z</time>
      </trkpt>
      <trkpt lat="48.05947" lon="7.01349">
        <ele>1158.53</ele>
        <time>2015-09-26T14:05:45Z</time>
      </trkpt>
      <trkpt lat="48.05966" lon="7.01363">
        <ele>1157.56</ele>
        <time>2015-09-26T14:06:02Z</time>
      </trkpt>
      <trkpt lat="48.05987" lon="7.0138">
        <ele>1157.08</ele>
        <time>2015-09-26T14:06:18Z</time>
      </trkpt>
      <trkpt lat="48.06005" lon="7.01395">
        <ele>1156.12</ele>
        <time>2015-09-26T14:06:35Z</time>
      </trkpt>
      <trkpt lat="48.06022" lon="7.01407">
        <ele>1155.64</ele>
        <time>2015-09-26T14:06:51Z</time>
      </trkpt>
      <trkpt lat="48.06052" lon="7.01432">
        <ele>1154.68</ele>
        <time>2015-09-26T14:07:21Z</time>
      </trkpt>
      <trkpt lat="48.06083" lon="7.01459">
        <ele>1153.24</ele>
        <time>2015-09-26T14:07:51Z</time>
      </trkpt>
      <trkpt lat="48.06101" lon="7.01477">
        <ele>1152.28</ele>
        <time>2015-09-26T14:08:07Z</time>
      </trkpt>
      <trkpt lat="48.06115" lon="7.01496">
        <ele>1151.8</ele>
        <time>2015-09-26T14:08:23Z</time>
      </trkpt>
      <trkpt lat="48.06134" lon="7.01518">
        <ele>1151.32</ele>
        <time>2015-09-26T14:08:38Z</time>
      </trkpt>
      <trkpt lat="48.06146" lon="7.01537">
        <ele>1150.84</ele>
        <time>2015-09-26T14:08:52Z</time>
      </trkpt>
      <trkpt lat="48.06159" lon="7.01558">
        <ele>1150.35</ele>
        <time>2015-09-26T14:09:07Z</time>
      </trkpt>
      <trkpt lat="48.06185" lon="7.01598">
        <ele>1148.91</ele>
        <time>2015-09-26T14:09:37Z</time>
      </trkpt>
      <trkpt lat="48.06194" lon="7.01621">
        <ele>1148.43</ele>
        <time>2015-09-26T14:09:52Z</time>
      </trkpt>
      <trkpt lat="48.06209" lon="7.01677">
        <ele>1147.47</ele>
        <time>2015-09-26T14:10:27Z</time>
      </trkpt>
      <trkpt lat="48.06217" lon="7.01707">
        <ele>1146.51</ele>
        <time>2015-09-26T14:11:05Z</time>
      </trkpt>
      <trkpt lat="48.06223" lon="7.01757">
        <ele>1146.03</ele>
        <time>2015-09-26T14:11:59Z</time>
      </trkpt>
      <trkpt lat="48.06229" lon="7.01787">
        <ele>1146.03</ele>
        <time>2015-09-26T14:12:17Z</time>
      </trkpt>
      <trkpt lat="48.06234" lon="7.01825">
        <ele>1141.22</ele>
        <time>2015-09-26T14:12:39Z</time>
      </trkpt>
      <trkpt lat="48.06236" lon="7.01854">
        <ele>1143.63</ele>
        <time>2015-09-26T14:13:01Z</time>
      </trkpt>
      <trkpt lat="48.06239" lon="7.01881">
        <ele>1143.14</ele>
        <time>2015-09-26T14:13:17Z</time>
      </trkpt>
      <trkpt lat="48.06238" lon="7.01908">
        <ele>1142.66</ele>
        <time>2015-09-26T14:13:34Z</time>
      </trkpt>
      <trkpt lat="48.06242" lon="7.01937">
        <ele>1142.18</ele>
        <time>2015-09-26T14:13:50Z</time>
      </trkpt>
      <trkpt lat="48.0624" lon="7.01997">
        <ele>1141.7</ele>
        <time>2015-09-26T14:14:35Z</time>
      </trkpt>
      <trkpt lat="48.0623" lon="7.02038">
        <ele>1140.74</ele>
        <time>2015-09-26T14:15:02Z</time>
      </trkpt>
      <trkpt lat="48.06226" lon="7.02065">
        <ele>1140.26</ele>
        <time>2015-09-26T14:15:18Z</time>
      </trkpt>
      <trkpt lat="48.0623" lon="7.0209">
        <ele>1140.26</ele>
        <time>2015-09-26T14:15:34Z</time>
      </trkpt>
      <trkpt lat="48.06263" lon="7.0211">
        <ele>1139.3</ele>
        <time>2015-09-26T14:16:17Z</time>
      </trkpt>
      <trkpt lat="48.0628" lon="7.02119">
        <ele>1139.78</ele>
        <time>2015-09-26T14:16:33Z</time>
      </trkpt>
      <trkpt lat="48.06317" lon="7.02169">
        <ele>1139.3</ele>
        <time>2015-09-26T14:20:05Z</time>
      </trkpt>
      <trkpt lat="48.06335" lon="7.02195">
        <ele>1138.82</ele>
        <time>2015-09-26T14:20:48Z</time>
      </trkpt>
      <trkpt lat="48.06337" lon="7.02223">
        <ele>1141.7</ele>
        <time>2015-09-26T14:21:39Z</time>
      </trkpt>
      <trkpt lat="48.06354" lon="7.0224">
        <ele>1140.74</ele>
        <time>2015-09-26T14:21:57Z</time>
      </trkpt>
      <trkpt lat="48.06373" lon="7.02236">
        <ele>1139.3</ele>
        <time>2015-09-26T14:22:19Z</time>
      </trkpt>
      <trkpt lat="48.06397" lon="7.0221">
        <ele>1138.82</ele>
        <time>2015-09-26T14:22:47Z</time>
      </trkpt>
      <trkpt lat="48.06409" lon="7.02202">
        <ele>1137.86</ele>
        <time>2015-09-26T14:23:06Z</time>
      </trkpt>
    </trkseg>
  </trk>
</gpx>